Terminal Aerodrome Forecast
Issued by NWS Pocatello, ID

Home | Current Version | Previous Version | Text Only | Print | Product List | Glossary On
Versions: 1 2 3 4 5 6 7 8 9 10 11 12 13 14 15 16
036
FTUS45 KPIH 252320
TAFBYI
TAF
KBYI 252320Z 2600/2624 27011KT P6SM SCT025 BKN070
     FM260200 23010KT P6SM SCT070
     FM261100 23009KT P6SM VCSH SCT020 BKN060
     FM261400 26010KT P6SM -SHRA BKN020 OVC035=

USA.gov is the U.S. government's official web portal to all federal, state and local government web resources and services.